Time;durP1;ratioP1;P1;durP2;ratioP2;P2;SDS_P1;SDS_P2;PMS_P1;PMS_P2;Temp;Humidity;BMP_temperature;BMP_pressure;BME280_temperature;BME280_humidity;BME280_pressure;Samples;Min_cycle;Max_cycle;Signal;HPM_P1;HPM_P2
2022/06/15 00:02:10;;;;;;;6.82;1.63;;;17.30;99.90;;;;;;5055481;28;20164;-90
2022/06/15 00:04:36;;;;;;;6.35;2.25;;;17.30;99.90;;;;;;5056052;28;20191;-79
2022/06/15 00:07:01;;;;;;;2.63;1.70;;;17.40;99.90;;;;;;5059626;28;20163;-80
2022/06/15 00:09:27;;;;;;;4.70;1.75;;;17.40;99.90;;;;;;5060102;28;20187;-81
2022/06/15 00:11:53;;;;;;;10.13;1.83;;;17.50;99.90;;;;;;5060841;28;20248;-81
2022/06/15 00:14:23;;;;;;;5.30;1.80;;;17.40;99.90;;;;;;5053742;28;20190;-86
2022/06/15 00:16:49;;;;;;;1.85;1.38;;;17.40;99.90;;;;;;5036094;28;20210;-92
2022/06/15 00:19:15;;;;;;;8.02;1.63;;;17.20;99.90;;;;;;5052645;28;20183;-81
2022/06/15 00:21:41;;;;;;;9.63;2.25;;;17.10;99.90;;;;;;5056998;28;20221;-80
2022/06/15 00:24:07;;;;;;;7.07;1.83;;;17.10;99.90;;;;;;5057805;28;20171;-81
2022/06/15 00:26:33;;;;;;;6.65;2.38;;;17.00;99.90;;;;;;5057663;28;20195;-89
2022/06/15 00:28:58;;;;;;;7.05;1.80;;;16.90;99.90;;;;;;5057635;28;20701;-80
2022/06/15 00:31:24;;;;;;;3.58;1.50;;;17.10;99.90;;;;;;5057936;28;20182;-80
2022/06/15 00:33:50;;;;;;;4.97;2.13;;;17.10;99.90;;;;;;5057939;28;20171;-83
2022/06/15 00:36:19;;;;;;;3.13;1.70;;;17.10;99.90;;;;;;5056669;28;20167;-80
2022/06/15 00:38:51;;;;;;;8.45;1.90;;;17.10;99.90;;;;;;5057036;28;20159;-81
2022/06/15 00:41:24;;;;;;;5.57;2.00;;;16.90;99.90;;;;;;5055468;28;20204;-80
2022/06/15 00:43:56;;;;;;;5.97;1.48;;;16.80;99.90;;;;;;5056338;28;20224;-80
2022/06/15 00:46:38;;;;;;;7.82;2.00;;;16.70;99.90;;;;;;5055154;28;20710;-80
2022/06/15 00:49:36;;;;;;;4.25;2.00;;;16.80;99.90;;;;;;5055977;28;20171;-80
2022/06/15 00:52:18;;;;;;;2.72;1.77;;;16.70;99.90;;;;;;5056252;28;20163;-81
2022/06/15 00:54:47;;;;;;;4.47;1.80;;;16.80;99.90;;;;;;5056063;28;20171;-81
2022/06/15 00:57:13;;;;;;;4.07;1.83;;;16.80;99.90;;;;;;5055458;28;20179;-79
2022/06/15 00:59:46;;;;;;;3.88;1.75;;;16.80;99.90;;;;;;5056312;28;20274;-90
2022/06/15 01:02:12;;;;;;;5.70;1.70;;;16.90;99.90;;;;;;5055974;28;20179;-81
2022/06/15 01:04:44;;;;;;;2.25;1.70;;;17.00;99.90;;;;;;5055499;28;20190;-80
2022/06/15 01:07:46;;;;;;;6.10;1.80;;;17.10;99.90;;;;;;5054974;28;20171;-79
2022/06/15 01:10:39;;;;;;;7.95;2.33;;;17.20;99.90;;;;;;5055578;28;20197;-81
2022/06/15 01:13:22;;;;;;;6.05;1.42;;;17.00;99.90;;;;;;5054644;28;20643;-81
2022/06/15 01:16:25;;;;;;;6.40;2.20;;;17.00;99.90;;;;;;5055717;28;20166;-79
2022/06/15 01:19:24;;;;;;;4.93;2.10;;;17.00;99.90;;;;;;5054277;28;20288;-82
2022/06/15 01:21:58;;;;;;;6.43;1.80;;;16.90;99.90;;;;;;5054492;28;20232;-80
2022/06/15 01:24:30;;;;;;;4.93;1.90;;;16.80;99.90;;;;;;5054175;28;20194;-81
2022/06/15 01:27:07;;;;;;;11.73;2.20;;;16.80;99.90;;;;;;5055470;28;20262;-81
2022/06/15 01:30:07;;;;;;;5.03;2.15;;;16.70;99.90;;;;;;5055625;28;20245;-78
2022/06/15 01:32:54;;;;;;;2.25;1.65;;;16.60;99.90;;;;;;5054779;28;20202;-87
2022/06/15 01:35:34;;;;;;;6.03;2.25;;;16.70;99.90;;;;;;5055144;28;20182;-80
2022/06/15 01:38:20;;;;;;;3.05;1.88;;;16.70;99.90;;;;;;5054428;28;20166;-80
2022/06/15 01:40:53;;;;;;;3.97;1.92;;;16.60;99.90;;;;;;5054029;28;20236;-81
2022/06/15 01:43:25;;;;;;;4.20;1.90;;;16.70;99.90;;;;;;5055927;28;20178;-80
2022/06/15 01:45:52;;;;;;;8.48;2.40;;;16.60;99.90;;;;;;5054135;28;20235;-80
2022/06/15 01:48:19;;;;;;;11.68;2.50;;;16.60;99.90;;;;;;5055011;28;20544;-81
2022/06/15 01:51:12;;;;;;;4.13;2.20;;;16.60;99.90;;;;;;5054951;28;20218;-80
2022/06/15 01:53:46;;;;;;;7.25;2.65;;;16.50;99.90;;;;;;5054343;28;20215;-81
2022/06/15 01:56:22;;;;;;;6.88;2.38;;;16.60;99.90;;;;;;5055568;28;20166;-93
2022/06/15 01:58:55;;;;;;;17.00;2.70;;;16.50;99.90;;;;;;5056554;28;20171;-91
2022/06/15 02:01:43;;;;;;;6.10;2.40;;;16.50;99.90;;;;;;5059702;28;20662;-81
2022/06/15 02:04:16;;;;;;;6.63;2.13;;;16.80;99.90;;;;;;5060434;28;20174;-81
2022/06/15 02:07:06;;;;;;;5.28;2.00;;;16.60;99.90;;;;;;5059815;28;20167;-80
2022/06/15 02:09:48;;;;;;;5.95;2.50;;;16.40;99.90;;;;;;5055228;28;20269;-80
2022/06/15 02:12:19;;;;;;;6.20;2.22;;;16.30;99.90;;;;;;5055173;28;20646;-94
2022/06/15 02:14:50;;;;;;;7.43;2.35;;;16.10;99.90;;;;;;5055277;28;20774;-94
2022/06/15 02:17:25;;;;;;;6.15;2.67;;;16.20;99.90;;;;;;5054552;28;20171;-80
2022/06/15 02:19:56;;;;;;;16.25;3.08;;;16.20;99.90;;;;;;5054762;28;20205;-94
2022/06/15 02:22:26;;;;;;;4.78;2.72;;;16.20;99.90;;;;;;5054626;28;20655;-93
2022/06/15 02:24:54;;;;;;;13.25;2.65;;;16.20;99.90;;;;;;5054519;28;20233;-84
2022/06/15 02:27:22;;;;;;;13.05;2.78;;;16.10;99.90;;;;;;5054088;28;20246;-79
2022/06/15 02:29:52;;;;;;;4.75;2.70;;;16.10;99.90;;;;;;5054150;28;20191;-81
2022/06/15 02:32:18;;;;;;;4.93;2.50;;;16.00;99.90;;;;;;5054362;28;20258;-80
2022/06/15 02:34:44;;;;;;;5.88;2.42;;;16.10;99.90;;;;;;5058915;28;20198;-80
2022/06/15 02:37:10;;;;;;;4.65;2.28;;;16.00;99.90;;;;;;5062650;28;20209;-79
2022/06/15 02:39:36;;;;;;;4.18;2.70;;;15.80;99.90;;;;;;5062240;28;20241;-90
2022/06/15 02:42:22;;;;;;;9.45;2.80;;;15.70;99.90;;;;;;5054087;28;20171;-95
2022/06/15 02:44:49;;;;;;;13.77;2.78;;;15.60;99.90;;;;;;5052314;28;20203;-82
2022/06/15 02:47:17;;;;;;;15.85;2.83;;;15.70;99.90;;;;;;5053665;28;20250;-89
2022/06/15 02:49:44;;;;;;;3.90;2.60;;;15.80;99.90;;;;;;5053483;28;20658;-87
2022/06/15 02:52:11;;;;;;;9.38;3.17;;;15.90;99.90;;;;;;5053657;28;20703;-82
2022/06/15 02:55:04;;;;;;;13.18;2.95;;;15.80;99.90;;;;;;5053857;28;20159;-83
2022/06/15 02:57:30;;;;;;;3.63;2.72;;;15.90;99.90;;;;;;5052555;28;20186;-80
2022/06/15 02:59:56;;;;;;;7.75;3.00;;;15.70;99.90;;;;;;5053423;28;20546;-80
2022/06/15 03:02:21;;;;;;;3.70;2.90;;;15.70;99.90;;;;;;5053461;28;20194;-80
2022/06/15 03:04:48;;;;;;;8.30;2.97;;;15.80;99.90;;;;;;5053556;28;20191;-82
2022/06/15 03:07:16;;;;;;;6.32;2.65;;;15.70;99.90;;;;;;5055344;28;20166;-82
2022/06/15 03:09:41;;;;;;;2.90;2.60;;;15.70;99.90;;;;;;5054477;28;20266;-81
2022/06/15 03:12:10;;;;;;;4.72;2.80;;;15.60;99.90;;;;;;5054787;28;20646;-85
2022/06/15 03:14:36;;;;;;;6.88;3.00;;;15.60;99.90;;;;;;5054632;28;20612;-89
2022/06/15 03:17:02;;;;;;;5.85;3.55;;;15.60;99.90;;;;;;5054920;28;20250;-92
2022/06/15 03:19:27;;;;;;;5.70;2.67;;;15.50;99.90;;;;;;5053877;28;20659;-94
2022/06/15 03:21:53;;;;;;;5.03;2.30;;;15.40;99.90;;;;;;5054278;28;20172;-86
2022/06/15 03:24:20;;;;;;;6.22;2.80;;;15.50;99.90;;;;;;5054323;28;20164;-94
2022/06/15 03:26:46;;;;;;;4.93;2.38;;;15.40;99.90;;;;;;5054360;28;20246;-91
2022/06/15 03:29:11;;;;;;;17.02;3.72;;;15.50;99.90;;;;;;5055199;28;20215;-80
2022/06/15 03:31:37;;;;;;;8.80;3.42;;;15.40;99.90;;;;;;5053939;28;20631;-82
2022/06/15 03:34:02;;;;;;;10.27;2.92;;;15.40;99.90;;;;;;5054665;28;20194;-78
2022/06/15 03:36:28;;;;;;;10.15;3.20;;;15.50;99.90;;;;;;5054503;28;20167;-82
2022/06/15 03:38:53;;;;;;;8.75;2.53;;;15.20;99.90;;;;;;5053037;28;20631;-93
2022/06/15 03:41:20;;;;;;;3.92;2.90;;;15.20;99.90;;;;;;5053305;28;20234;-81
2022/06/15 03:43:46;;;;;;;6.72;3.30;;;15.30;99.90;;;;;;5055200;28;20171;-79
2022/06/15 03:46:12;;;;;;;10.05;3.55;;;15.10;99.90;;;;;;5052937;28;20203;-81
2022/06/15 03:48:38;;;;;;;11.07;3.30;;;15.20;99.90;;;;;;5053926;28;20232;-79
2022/06/15 03:51:04;;;;;;;5.75;2.83;;;15.20;99.90;;;;;;5056713;28;20191;-80
2022/06/15 03:53:30;;;;;;;5.13;2.65;;;15.20;99.90;;;;;;5052011;28;20197;-90
2022/06/15 03:55:55;;;;;;;4.93;2.83;;;15.30;99.90;;;;;;5055553;28;20171;-85
2022/06/15 03:58:21;;;;;;;8.15;3.55;;;15.30;99.90;;;;;;5056825;28;20202;-82
2022/06/15 04:00:48;;;;;;;8.02;3.13;;;15.30;99.90;;;;;;5057124;28;20202;-84
2022/06/15 04:03:15;;;;;;;15.85;2.55;;;15.60;99.90;;;;;;5056628;28;20171;-93
2022/06/15 04:05:44;;;;;;;11.15;3.75;;;16.00;99.90;;;;;;5057133;28;20210;-92
2022/06/15 04:08:42;;;;;;;4.70;2.92;;;16.40;99.90;;;;;;5056773;28;20232;-85
2022/06/15 04:11:11;;;;;;;11.60;2.67;;;16.70;99.90;;;;;;5055420;28;20203;-81
2022/06/15 04:13:37;;;;;;;11.40;3.20;;;17.20;99.90;;;;;;5056731;28;20228;-94
2022/06/15 04:16:07;;;;;;;6.55;2.78;;;17.50;99.90;;;;;;5065594;28;20178;-80
2022/06/15 04:18:34;;;;;;;6.25;3.10;;;17.70;99.90;;;;;;5054550;28;20207;-80
2022/06/15 04:21:00;;;;;;;8.68;2.95;;;17.90;99.90;;;;;;5061734;28;20182;-80
2022/06/15 04:23:26;;;;;;;7.13;2.95;;;17.70;99.90;;;;;;5057436;28;20169;-93
2022/06/15 04:26:02;;;;;;;8.60;3.83;;;17.50;99.90;;;;;;5061474;28;20199;-80
2022/06/15 04:28:30;;;;;;;4.85;3.05;;;17.40;99.90;;;;;;5059602;28;20187;-80
2022/06/15 04:30:56;;;;;;;5.28;2.92;;;17.30;99.90;;;;;;5060459;28;20197;-83
2022/06/15 04:33:24;;;;;;;11.70;3.20;;;17.00;99.90;;;;;;5061665;28;20194;-87
2022/06/15 04:35:50;;;;;;;5.65;2.83;;;16.90;99.90;;;;;;5057051;28;20273;-80
2022/06/15 04:38:16;;;;;;;7.45;3.88;;;16.90;99.90;;;;;;5059141;28;20198;-81
2022/06/15 04:40:42;;;;;;;10.02;3.65;;;16.80;99.90;;;;;;5057668;28;20191;-92
2022/06/15 04:43:09;;;;;;;11.10;3.50;;;16.90;99.90;;;;;;5058551;28;20163;-81
2022/06/15 04:45:35;;;;;;;6.53;3.20;;;16.90;99.90;;;;;;5055827;28;20206;-80
2022/06/15 04:48:01;;;;;;;8.43;3.53;;;16.80;99.90;;;;;;5056790;28;20174;-86
2022/06/15 04:50:28;;;;;;;5.95;3.47;;;16.70;99.90;;;;;;5056046;28;20187;-87
2022/06/15 04:52:54;;;;;;;10.13;3.42;;;16.50;99.90;;;;;;5056443;28;20163;-81
2022/06/15 04:55:22;;;;;;;8.93;3.90;;;16.50;99.90;;;;;;5055848;28;20179;-81
2022/06/15 04:57:50;;;;;;;8.63;4.32;;;16.70;99.90;;;;;;5056041;28;20179;-81
2022/06/15 05:00:18;;;;;;;7.00;4.65;;;16.50;99.90;;;;;;5056701;28;20265;-84
2022/06/15 05:02:45;;;;;;;10.20;4.30;;;16.50;99.90;;;;;;5057599;28;20179;-80
2022/06/15 05:05:11;;;;;;;12.18;5.07;;;16.60;99.90;;;;;;5061817;28;20206;-79
2022/06/15 05:07:36;;;;;;;10.60;4.40;;;16.60;99.90;;;;;;5061039;28;20171;-80
2022/06/15 05:10:04;;;;;;;7.85;3.83;;;16.60;99.90;;;;;;5062844;28;20839;-80
2022/06/15 05:12:30;;;;;;;9.10;4.65;;;16.60;99.90;;;;;;5061253;28;20160;-80
2022/06/15 05:14:55;;;;;;;5.50;4.70;;;16.60;99.90;;;;;;5061376;28;20168;-80
2022/06/15 05:17:22;;;;;;;11.05;4.35;;;16.80;99.90;;;;;;5060937;28;20274;-82
2022/06/15 05:19:49;;;;;;;4.97;4.57;;;16.80;99.90;;;;;;5058187;28;20667;-90
2022/06/15 05:22:14;;;;;;;18.20;4.65;;;16.60;99.90;;;;;;5059972;28;20171;-79
2022/06/15 05:24:40;;;;;;;6.60;4.32;;;16.60;99.90;;;;;;5063756;28;20693;-80
2022/06/15 05:27:06;;;;;;;13.65;5.40;;;16.70;99.90;;;;;;5060484;28;20517;-79
2022/06/15 05:29:35;;;;;;;8.02;4.18;;;16.80;99.90;;;;;;5063193;28;20175;-82
2022/06/15 05:32:04;;;;;;;11.35;5.25;;;16.70;99.90;;;;;;5063768;28;20167;-80
2022/06/15 05:34:29;;;;;;;20.58;5.07;;;17.00;99.90;;;;;;5064098;28;20159;-81
2022/06/15 05:36:55;;;;;;;17.27;5.80;;;17.00;99.90;;;;;;5063754;28;20178;-81
2022/06/15 05:39:21;;;;;;;15.20;5.30;;;17.00;99.90;;;;;;5061887;28;20547;-80
2022/06/15 05:41:49;;;;;;;11.80;4.93;;;16.90;99.90;;;;;;5061973;28;20191;-81
2022/06/15 05:46:58;;;;;;;12.57;5.28;;;17.00;99.90;;;;;;5069797;28;20201;-80
2022/06/15 05:49:24;;;;;;;11.90;5.35;;;16.90;99.90;;;;;;5067775;28;21028;-84
2022/06/15 05:51:50;;;;;;;11.63;4.95;;;17.00;99.90;;;;;;5055908;28;20262;-85
2022/06/15 05:54:16;;;;;;;7.20;5.93;;;16.90;99.90;;;;;;5050569;28;20159;-85
2022/06/15 05:56:41;;;;;;;16.75;5.63;;;17.10;99.90;;;;;;5051218;28;20172;-95
2022/06/15 05:59:08;;;;;;;9.65;5.07;;;17.10;99.90;;;;;;5050603;28;20217;-79
2022/06/15 06:01:36;;;;;;;8.50;6.05;;;17.20;99.90;;;;;;5049612;28;20591;-79
2022/06/15 06:04:03;;;;;;;20.48;5.93;;;17.20;99.90;;;;;;5038933;28;20592;-81
2022/06/15 06:06:30;;;;;;;13.02;5.60;;;17.30;99.90;;;;;;5036258;28;20226;-76
2022/06/15 06:08:56;;;;;;;10.93;5.35;;;17.20;99.90;;;;;;5034648;28;20175;-75
2022/06/15 06:11:23;;;;;;;23.42;5.72;;;17.20;99.90;;;;;;5038242;28;20246;-75
2022/06/15 06:13:50;;;;;;;27.60;6.90;;;17.30;99.90;;;;;;5041070;28;20195;-77
2022/06/15 06:16:16;;;;;;;10.40;7.15;;;17.10;99.90;;;;;;5041280;28;20160;-76
2022/06/15 06:18:42;;;;;;;10.35;5.55;;;17.20;99.90;;;;;;5042056;28;20204;-85
2022/06/15 06:21:08;;;;;;;21.77;7.15;;;17.20;99.90;;;;;;5034472;28;20195;-75
2022/06/15 06:23:35;;;;;;;14.45;6.05;;;17.30;99.90;;;;;;5034833;28;20627;-86
2022/06/15 06:26:02;;;;;;;31.70;6.45;;;17.40;99.90;;;;;;5034569;28;20222;-86
2022/06/15 06:28:34;;;;;;;12.93;6.30;;;17.70;99.90;;;;;;5035509;28;20234;-78
2022/06/15 06:31:01;;;;;;;10.70;5.45;;;17.80;99.90;;;;;;5037398;28;20192;-79
2022/06/15 06:33:29;;;;;;;13.93;5.45;;;17.80;99.90;;;;;;5037969;28;20183;-86
2022/06/15 06:35:57;;;;;;;13.75;5.25;;;17.80;99.90;;;;;;5039323;28;20246;-75
2022/06/15 06:38:24;;;;;;;17.13;5.78;;;18.00;99.90;;;;;;5035368;28;20563;-86
2022/06/15 06:40:54;;;;;;;49.95;7.15;;;17.90;99.90;;;;;;5036371;28;20226;-88
2022/06/15 06:43:22;;;;;;;28.08;6.82;;;18.00;99.90;;;;;;5034641;28;20174;-89
2022/06/15 06:45:49;;;;;;;12.10;5.82;;;18.30;99.90;;;;;;5034051;28;20207;-81
2022/06/15 06:48:15;;;;;;;16.17;5.80;;;18.40;99.90;;;;;;5033952;28;20199;-80
2022/06/15 06:51:03;;;;;;;12.00;4.72;;;18.70;99.90;;;;;;5033273;28;20184;-79
2022/06/15 06:53:29;;;;;;;7.57;4.93;;;19.40;99.90;;;;;;5033809;28;20226;-78
2022/06/15 06:55:59;;;;;;;17.83;6.00;;;20.20;99.90;;;;;;5033050;28;20175;-82
2022/06/15 06:58:25;;;;;;;16.70;5.22;;;21.10;99.90;;;;;;5034977;28;20247;-87
2022/06/15 07:00:51;;;;;;;12.18;4.25;;;21.80;99.90;;;;;;5035154;28;20277;-80
2022/06/15 07:03:17;;;;;;;15.73;4.82;;;22.50;99.90;;;;;;5035014;28;20156;-89
2022/06/15 07:05:44;;;;;;;15.05;4.13;;;22.60;99.90;;;;;;5035245;28;20214;-80
2022/06/15 07:08:12;;;;;;;13.75;4.05;;;23.10;99.90;;;;;;5034750;28;20168;-91
2022/06/15 07:10:39;;;;;;;23.80;5.00;;;23.30;99.90;;;;;;5034940;28;20211;-81
2022/06/15 07:13:05;;;;;;;14.68;3.92;;;23.60;99.90;;;;;;5034621;28;21035;-81
2022/06/15 07:15:30;;;;;;;11.68;3.70;;;23.50;99.90;;;;;;5032109;28;20201;-86
2022/06/15 07:18:03;;;;;;;10.15;4.40;;;23.90;99.90;;;;;;5042179;28;20174;-91
2022/06/15 07:20:30;;;;;;;18.80;5.07;;;24.30;99.90;;;;;;5063579;28;20800;-85
2022/06/15 07:22:56;;;;;;;9.15;3.65;;;24.20;99.90;;;;;;5073293;28;20170;-82
2022/06/15 07:25:22;;;;;;;18.52;3.47;;;24.30;99.90;;;;;;5073187;28;20209;-90
2022/06/15 07:27:48;;;;;;;17.77;3.63;;;24.30;99.90;;;;;;5066655;28;20174;-82
2022/06/15 07:30:18;;;;;;;21.25;3.97;;;25.20;99.90;;;;;;5052394;28;20229;-83
2022/06/15 07:32:44;;;;;;;19.73;3.88;;;25.70;99.90;;;;;;5051711;28;20792;-84
2022/06/15 07:35:26;;;;;;;21.33;3.38;;;25.50;99.90;;;;;;5051785;28;20583;-82
2022/06/15 07:37:53;;;;;;;23.45;5.15;;;25.50;99.90;;;;;;5050559;28;20171;-82
2022/06/15 07:40:20;;;;;;;9.18;3.13;;;26.20;99.90;;;;;;5042558;28;20224;-87
2022/06/15 07:42:48;;;;;;;4.97;3.67;;;26.20;99.90;;;;;;5031441;28;20498;-84
2022/06/15 07:45:16;;;;;;;15.75;4.80;;;26.60;99.90;;;;;;5033857;28;20218;-88
2022/06/15 07:52:53;;;;;;;14.05;3.83;;;25.90;99.90;;;;;;5032905;28;20633;-87
2022/06/15 07:55:26;;;;;;;16.70;3.95;;;25.30;99.90;;;;;;5031701;28;20214;-83
2022/06/15 07:57:53;;;;;;;6.22;3.55;;;25.10;99.90;;;;;;5031925;28;20172;-84
2022/06/15 08:00:20;;;;;;;12.38;3.55;;;24.80;99.90;;;;;;5042331;28;20191;-88
2022/06/15 08:02:46;;;;;;;49.65;6.78;;;24.30;99.90;;;;;;5034992;28;20262;-82
2022/06/15 08:05:12;;;;;;;16.10;3.97;;;23.90;99.90;;;;;;5052351;28;20216;-85
2022/06/15 08:07:38;;;;;;;13.60;4.07;;;23.40;99.90;;;;;;5052939;28;20607;-86
2022/06/15 08:10:05;;;;;;;24.05;4.13;;;23.10;99.90;;;;;;5051721;28;20233;-84
2022/06/15 08:12:31;;;;;;;10.93;4.47;;;22.60;99.90;;;;;;5050153;28;20178;-86
2022/06/15 08:15:00;;;;;;;16.48;5.13;;;22.60;99.90;;;;;;5051179;28;20187;-82
2022/06/15 08:17:28;;;;;;;12.95;4.85;;;22.60;99.90;;;;;;5052724;28;20179;-84
2022/06/15 08:20:00;;;;;;;24.48;5.03;;;22.60;99.90;;;;;;5051213;28;20191;-84
2022/06/15 08:22:26;;;;;;;19.02;5.07;;;22.60;99.90;;;;;;5049763;28;20171;-82
2022/06/15 08:24:53;;;;;;;18.13;4.75;;;22.80;99.90;;;;;;5051594;28;20207;-86
2022/06/15 08:27:21;;;;;;;13.70;3.92;;;22.90;99.90;;;;;;5051111;28;20620;-83
2022/06/15 08:29:48;;;;;;;21.63;4.93;;;22.90;99.90;;;;;;5047897;28;20202;-84
2022/06/15 08:32:16;;;;;;;13.13;4.30;;;22.80;99.90;;;;;;5045027;28;20196;-87
2022/06/15 08:34:42;;;;;;;11.13;4.32;;;22.70;99.90;;;;;;5051746;28;20171;-88
2022/06/15 08:37:13;;;;;;;5.38;3.60;;;22.80;99.90;;;;;;5051348;28;20194;-83
2022/06/15 08:39:39;;;;;;;11.43;4.47;;;22.60;99.90;;;;;;5055519;28;20237;-94
2022/06/15 08:42:30;;;;;;;20.40;4.57;;;22.70;99.90;;;;;;5057956;28;20189;-91
2022/06/15 08:45:15;;;;;;;17.02;4.93;;;22.70;99.90;;;;;;5060876;28;20294;-89
2022/06/15 08:47:46;;;;;;;21.92;4.20;;;22.70;99.90;;;;;;5057672;28;20189;-89
2022/06/15 08:50:28;;;;;;;12.73;3.97;;;22.70;99.90;;;;;;5059224;28;20175;-95
2022/06/15 08:53:08;;;;;;;19.05;5.15;;;22.90;99.90;;;;;;5058284;28;20171;-93
2022/06/15 08:55:45;;;;;;;17.17;3.83;;;23.10;99.90;;;;;;5045024;28;20168;-92
2022/06/15 08:58:42;;;;;;;5.13;3.70;;;23.10;99.90;;;;;;5051739;28;20585;-90
2022/06/15 09:01:36;;;;;;;13.93;4.70;;;23.20;99.90;;;;;;5057289;28;20202;-94
2022/06/15 09:04:20;;;;;;;19.40;3.88;;;23.20;99.90;;;;;;5057264;28;20291;-89
2022/06/15 09:06:49;;;;;;;16.92;4.80;;;23.20;99.90;;;;;;5057343;28;20179;-83
2022/06/15 09:09:26;;;;;;;17.00;4.18;;;23.20;99.90;;;;;;5058089;28;20618;-89
2022/06/15 09:15:28;;;;;;;85.55;10.88;;;23.40;99.90;;;;;;5056206;28;20243;-87
2022/06/15 09:17:57;;;;;;;16.70;4.93;;;23.60;99.90;;;;;;5054721;28;20174;-82
2022/06/15 09:20:51;;;;;;;21.73;3.70;;;23.70;99.90;;;;;;5053337;28;20214;-83
2022/06/15 09:23:28;;;;;;;6.20;3.92;;;23.40;99.90;;;;;;5038057;28;20181;-81
2022/06/15 09:26:01;;;;;;;10.00;4.57;;;23.60;99.90;;;;;;5054761;28;20229;-80
2022/06/15 09:28:40;;;;;;;10.90;4.07;;;23.70;99.90;;;;;;5054714;28;20163;-80
2022/06/15 09:31:11;;;;;;;8.68;4.28;;;23.80;99.90;;;;;;5054243;28;20191;-80
2022/06/15 09:33:53;;;;;;;10.90;3.50;;;23.60;99.90;;;;;;5055349;28;20162;-84
2022/06/15 09:36:24;;;;;;;18.63;3.78;;;23.60;99.90;;;;;;5055303;28;20182;-80
2022/06/15 09:38:50;;;;;;;17.98;4.50;;;23.80;99.90;;;;;;5055750;28;20195;-81
2022/06/15 09:41:21;;;;;;;12.48;3.45;;;23.80;99.90;;;;;;5054903;28;20190;-79
2022/06/15 09:43:59;;;;;;;17.33;3.78;;;23.90;99.90;;;;;;5054791;28;20370;-83
2022/06/15 09:46:37;;;;;;;9.98;4.32;;;23.90;99.90;;;;;;5053330;28;20210;-80
2022/06/15 09:49:31;;;;;;;15.40;4.07;;;24.10;99.90;;;;;;5053282;28;20589;-82
2022/06/15 09:52:16;;;;;;;12.23;3.60;;;24.10;99.90;;;;;;5054485;28;20237;-84
2022/06/15 09:55:02;;;;;;;17.23;4.03;;;24.30;99.90;;;;;;5054733;28;20253;-83
2022/06/15 09:57:28;;;;;;;68.68;5.57;;;24.30;99.90;;;;;;5055745;28;20167;-80
2022/06/15 09:59:54;;;;;;;10.35;4.32;;;24.40;99.90;;;;;;5053634;28;20195;-81
2022/06/15 10:02:26;;;;;;;10.00;4.40;;;24.30;99.90;;;;;;5054877;28;20262;-85
2022/06/15 10:04:52;;;;;;;11.45;3.90;;;24.20;99.90;;;;;;5054920;28;20199;-81
2022/06/15 10:07:39;;;;;;;17.95;4.60;;;24.30;99.90;;;;;;5055793;28;20270;-80
2022/06/15 10:10:27;;;;;;;15.32;4.22;;;24.50;99.90;;;;;;5054502;28;20187;-81
2022/06/15 10:12:58;;;;;;;5.40;4.30;;;24.10;99.90;;;;;;5053621;28;20665;-81
2022/06/15 10:15:41;;;;;;;4.22;3.83;;;24.30;99.90;;;;;;5055461;28;20220;-88
2022/06/15 10:18:17;;;;;;;10.68;3.33;;;24.30;99.90;;;;;;5058661;28;20175;-81
2022/06/15 10:21:00;;;;;;;10.15;3.88;;;24.50;99.90;;;;;;5063657;28;20667;-81
2022/06/15 10:23:56;;;;;;;10.40;4.28;;;24.70;99.90;;;;;;5055004;28;20194;-80
2022/06/15 10:26:29;;;;;;;10.63;5.40;;;24.90;99.90;;;;;;5035425;28;20238;-81
2022/06/15 10:28:56;;;;;;;15.57;4.10;;;24.80;99.90;;;;;;5054553;28;20202;-87
2022/06/15 10:31:32;;;;;;;21.48;4.25;;;24.80;99.90;;;;;;5054405;28;20167;-80
2022/06/15 10:33:58;;;;;;;21.05;3.78;;;24.80;99.90;;;;;;5053910;28;20182;-92
2022/06/15 10:36:33;;;;;;;14.50;4.28;;;24.80;99.90;;;;;;5056926;28;20175;-90
2022/06/15 10:39:22;;;;;;;6.68;3.40;;;24.80;99.90;;;;;;5053703;28;20534;-85
2022/06/15 10:41:49;;;;;;;26.88;4.07;;;24.90;99.90;;;;;;5055240;28;20251;-91
2022/06/15 10:44:34;;;;;;;8.18;3.78;;;25.00;99.90;;;;;;5055988;28;20163;-86
2022/06/15 10:47:10;;;;;;;9.25;4.47;;;24.90;99.90;;;;;;5060143;28;20198;-81
2022/06/15 10:49:42;;;;;;;11.38;4.00;;;25.00;99.90;;;;;;5054694;28;20241;-81
2022/06/15 10:52:22;;;;;;;50.67;8.85;;;25.10;99.90;;;;;;5053664;28;20175;-82
2022/06/15 11:03:22;;;;;;;49.88;5.57;;;25.20;99.90;;;;;;5059657;28;20186;-83
2022/06/15 11:05:51;;;;;;;8.88;3.05;;;25.30;99.90;;;;;;5057555;28;20207;-82
2022/06/15 11:08:21;;;;;;;64.47;7.57;;;25.20;99.90;;;;;;5051537;28;20663;-83
2022/06/15 11:10:50;;;;;;;14.90;4.43;;;25.30;99.90;;;;;;5051935;28;20714;-85
2022/06/15 11:13:36;;;;;;;42.90;5.85;;;25.40;99.90;;;;;;5053271;28;20238;-81
2022/06/15 11:19:12;;;;;;;8.05;3.80;;;25.50;99.90;;;;;;5055237;28;20202;-82
2022/06/15 11:21:45;;;;;;;27.92;6.18;;;25.40;99.90;;;;;;5052294;28;20166;-83
2022/06/15 11:24:11;;;;;;;139.60;15.25;;;25.50;99.90;;;;;;5053925;28;20291;-82
2022/06/15 11:26:57;;;;;;;12.73;3.97;;;25.70;99.90;;;;;;5053269;28;20684;-85
2022/06/15 11:29:43;;;;;;;25.58;3.30;;;25.60;99.90;;;;;;5052345;28;20205;-83
2022/06/15 11:32:33;;;;;;;39.15;6.53;;;25.40;99.90;;;;;;5053304;28;20228;-84
2022/06/15 11:35:14;;;;;;;13.82;3.90;;;25.60;99.90;;;;;;5051305;28;20171;-82
2022/06/15 11:38:13;;;;;;;25.50;3.58;;;25.60;99.90;;;;;;5051822;28;20262;-85
2022/06/15 11:40:52;;;;;;;7.72;3.90;;;25.50;99.90;;;;;;5051898;28;20605;-84
2022/06/15 11:43:17;;;;;;;15.10;4.47;;;25.70;99.90;;;;;;5052460;28;20659;-82
2022/06/15 11:46:14;;;;;;;8.45;3.08;;;25.70;99.90;;;;;;5053198;28;20203;-83
2022/06/15 11:48:57;;;;;;;14.68;4.00;;;25.70;99.90;;;;;;5053494;28;20265;-84
2022/06/15 11:51:36;;;;;;;31.38;5.10;;;25.50;99.90;;;;;;5053822;28;20175;-85
2022/06/15 11:54:19;;;;;;;27.05;5.97;;;25.50;99.90;;;;;;5053823;28;20167;-83
2022/06/15 11:57:15;;;;;;;62.08;7.13;;;25.60;99.90;;;;;;5054031;28;20220;-89
2022/06/15 12:00:28;;;;;;;16.90;3.63;;;25.60;99.90;;;;;;5053109;28;20232;-83
2022/06/15 12:03:13;;;;;;;7.28;3.40;;;25.50;99.90;;;;;;5032914;28;21327;-88
2022/06/15 12:05:41;;;;;;;13.93;3.92;;;25.60;99.90;;;;;;5052414;28;20641;-86
2022/06/15 12:08:33;;;;;;;10.15;3.40;;;25.80;99.90;;;;;;5051942;28;20675;-85
2022/06/15 12:14:09;;;;;;;8.70;2.72;;;25.80;99.70;;;;;;5053677;28;20532;-82
2022/06/15 12:16:42;;;;;;;30.55;4.93;;;25.90;99.60;;;;;;5054827;28;20644;-82
2022/06/15 12:19:31;;;;;;;15.18;3.00;;;25.90;99.90;;;;;;5056696;28;20623;-81
2022/06/15 12:22:31;;;;;;;9.05;2.95;;;26.00;99.90;;;;;;5056524;28;20178;-82
2022/06/15 12:25:05;;;;;;;11.93;3.33;;;26.00;99.90;;;;;;5052427;28;20626;-84
2022/06/15 12:28:17;;;;;;;10.18;2.30;;;25.90;99.90;;;;;;5056617;28;20154;-81
2022/06/15 12:31:09;;;;;;;18.30;3.42;;;26.00;99.90;;;;;;5034503;28;20355;-81
2022/06/15 12:34:00;;;;;;;5.53;3.08;;;25.90;99.90;;;;;;5050789;28;20237;-84
2022/06/15 12:36:26;;;;;;;7.72;2.67;;;25.80;99.10;;;;;;5054940;28;20174;-82
2022/06/15 12:39:07;;;;;;;9.52;3.00;;;26.00;98.90;;;;;;5056086;28;20238;-81
2022/06/15 12:44:29;;;;;;;6.53;2.47;;;26.00;97.50;;;;;;5055920;28;20222;-82
2022/06/15 12:46:56;;;;;;;6.28;2.92;;;26.30;97.70;;;;;;5053920;28;20197;-81
2022/06/15 12:49:27;;;;;;;7.45;2.97;;;26.60;97.70;;;;;;5055398;28;20663;-82
2022/06/15 12:51:53;;;;;;;7.72;2.85;;;26.80;97.50;;;;;;5057470;28;20211;-81
2022/06/15 12:54:22;;;;;;;18.27;2.53;;;26.70;97.80;;;;;;5070489;28;20186;-81
2022/06/15 12:57:03;;;;;;;2.63;2.35;;;26.60;98.10;;;;;;5060756;28;20171;-81
2022/06/15 12:59:30;;;;;;;13.82;3.03;;;26.60;97.30;;;;;;5053945;28;20559;-82
2022/06/15 13:02:19;;;;;;;43.80;4.40;;;26.80;97.50;;;;;;5055592;28;20170;-82
2022/06/15 13:04:55;;;;;;;6.13;2.53;;;26.90;97.30;;;;;;5055445;28;20205;-83
2022/06/15 13:07:23;;;;;;;12.70;2.33;;;26.70;97.10;;;;;;5055996;28;20170;-82
2022/06/15 13:10:20;;;;;;;9.95;2.97;;;26.70;96.20;;;;;;5055122;28;20184;-82
2022/06/15 13:12:48;;;;;;;25.05;2.83;;;26.80;96.20;;;;;;5055047;28;20198;-81
2022/06/15 13:15:51;;;;;;;23.77;2.85;;;26.80;96.20;;;;;;5056410;28;20175;-82
2022/06/15 13:18:19;;;;;;;6.20;2.50;;;26.80;95.90;;;;;;5055104;28;20199;-82
2022/06/15 13:20:48;;;;;;;12.55;2.45;;;26.70;96.10;;;;;;5054807;28;20191;-82
2022/06/15 13:23:22;;;;;;;4.15;2.50;;;26.80;95.80;;;;;;5053949;28;20178;-81
2022/06/15 13:26:24;;;;;;;6.78;2.05;;;27.00;96.40;;;;;;5053504;28;20258;-82
2022/06/15 13:29:17;;;;;;;8.45;3.58;;;27.10;96.70;;;;;;5042495;28;20193;-85
2022/06/15 13:31:45;;;;;;;8.82;2.50;;;27.10;96.50;;;;;;5056341;28;20178;-85
2022/06/15 13:34:14;;;;;;;131.73;13.82;;;27.10;95.70;;;;;;5054756;28;20187;-87
2022/06/15 13:36:43;;;;;;;241.07;22.50;;;27.20;96.00;;;;;;5054293;28;20179;-86
2022/06/15 13:39:24;;;;;;;32.03;6.18;;;27.10;95.50;;;;;;5053436;28;20171;-81